Time;durP1;ratioP1;P1;durP2;ratioP2;P2;SDS_P1;SDS_P2;PMS_P1;PMS_P2;Temp;Humidity;BMP_temperature;BMP_pressure;BME280_temperature;BME280_humidity;BME280_pressure;Samples;Min_cycle;Max_cycle;Signal;HPM_P1;HPM_P2
2021/09/29 00:01:01;;;;;;;12.90;11.77;;;;;;;31.41;66.74;100792.56;5036513;28;70105;-39
2021/09/29 00:03:32;;;;;;;12.55;11.45;;;;;;;31.41;66.79;100795.28;5008895;28;64788;-39
2021/09/29 00:06:04;;;;;;;12.65;11.68;;;;;;;31.35;67.01;100796.97;5051435;28;69392;-38
2021/09/29 00:08:35;;;;;;;;;;;;;;;31.16;67.80;100798.84;5047848;28;66703;-37
2021/09/29 00:11:05;;;;;;;12.70;11.55;;;;;;;31.37;67.03;100805.75;5051943;28;69174;-38
2021/09/29 00:13:36;;;;;;;13.75;12.60;;;;;;;31.41;66.76;100806.13;5052813;28;68087;-38
2021/09/29 00:16:07;;;;;;;13.02;12.07;;;;;;;31.42;66.65;100810.47;5047151;28;70253;-39
2021/09/29 00:18:39;;;;;;;14.60;13.25;;;;;;;31.43;66.56;100819.47;5041632;28;64672;-39
2021/09/29 00:21:11;;;;;;;13.35;12.43;;;;;;;31.39;66.82;100808.22;5051068;28;70340;-38
2021/09/29 00:23:42;;;;;;;13.57;12.33;;;;;;;31.41;66.83;100816.97;5033231;28;65480;-38
2021/09/29 00:26:13;;;;;;;13.50;12.50;;;;;;;31.37;67.03;100815.75;5045995;28;70142;-39
2021/09/29 00:28:44;;;;;;;15.02;13.32;;;;;;;31.42;66.84;100818.63;5045692;28;67478;-38
2021/09/29 00:31:35;;;;;;;13.75;12.55;;;;;;;31.41;66.94;100816.97;5061955;28;69577;-38
2021/09/29 00:34:32;;;;;;;21.60;13.15;;;;;;;31.44;67.14;100819.22;5027684;28;66387;-38
2021/09/29 00:37:04;;;;;;;14.90;13.45;;;;;;;31.45;66.84;100818.16;5049608;28;69969;-39
2021/09/29 00:39:42;;;;;;;14.18;13.13;;;;;;;31.42;67.09;100812.38;5052529;28;66060;-39
2021/09/29 00:42:17;;;;;;;15.85;13.93;;;;;;;31.45;66.91;100820.03;5018680;28;70024;-38
2021/09/29 00:44:51;;;;;;;16.55;14.48;;;;;;;31.50;66.88;100826.44;5045844;28;67150;-38
2021/09/29 00:47:32;;;;;;;17.52;15.13;;;;;;;31.54;67.26;100832.25;5022607;28;68971;-38
2021/09/29 00:50:09;;;;;;;17.25;15.48;;;;;;;31.50;67.36;100829.16;5042563;28;65997;-38
2021/09/29 00:52:46;;;;;;;16.83;15.32;;;;;;;31.51;67.40;100822.69;5031938;28;70107;-38
2021/09/29 00:55:25;;;;;;;16.30;14.50;;;;;;;31.54;67.85;100826.84;5042738;28;66359;-38
2021/09/29 00:58:18;;;;;;;16.10;14.90;;;;;;;31.48;67.91;100830.44;5048464;28;69992;-38
2021/09/29 01:01:17;;;;;;;20.85;16.05;;;;;;;31.53;67.50;100828.69;5044483;28;66134;-38
2021/09/29 01:03:56;;;;;;;18.35;16.65;;;;;;;31.54;67.60;100822.25;5049077;28;69123;-38
2021/09/29 01:06:47;;;;;;;18.05;16.27;;;;;;;31.33;67.60;100798.25;5030118;28;65361;-37
2021/09/29 01:09:56;;;;;;;20.45;18.05;;;;;;;31.56;67.89;100825.53;5046111;28;70224;-38
2021/09/29 01:12:53;;;;;;;23.65;18.23;;;;;;;31.48;68.03;100828.56;5038901;28;67232;-38
2021/09/29 01:15:38;;;;;;;27.95;18.27;;;;;;;31.58;67.68;100845.13;5041777;28;68930;-38
2021/09/29 01:18:14;;;;;;;22.25;17.67;;;;;;;31.63;67.74;100840.91;5043291;28;66164;-38
2021/09/29 01:20:58;;;;;;;22.17;17.55;;;;;;;31.60;68.08;100848.44;5041391;28;69934;-38
2021/09/29 01:24:25;;;;;;;23.83;17.90;;;;;;;31.41;68.38;100844.06;5045201;28;65359;-38
2021/09/29 01:27:00;;;;;;;23.63;16.98;;;;;;;31.65;68.30;100852.34;5050243;28;70168;-38
2021/09/29 01:29:42;;;;;;;24.33;16.73;;;;;;;31.38;68.14;100809.28;5042387;28;65749;-38
2021/09/29 01:32:27;;;;;;;19.23;17.08;;;;;;;31.65;68.24;100849.63;5045716;28;69607;-38
2021/09/29 01:35:09;;;;;;;21.02;15.85;;;;;;;31.63;68.47;100857.19;5032850;28;67017;-38
2021/09/29 01:37:44;;;;;;;28.00;17.05;;;;;;;31.68;68.00;100854.59;5031454;28;69291;-38
2021/09/29 01:40:26;;;;;;;26.77;15.25;;;;;;;31.65;68.81;100860.47;5041776;28;65329;-38
2021/09/29 01:43:06;;;;;;;17.15;15.38;;;;;;;31.71;68.65;100870.44;5045197;27;70253;-38
2021/09/29 01:45:50;;;;;;;18.83;15.15;;;;;;;31.66;68.46;100851.31;5043099;28;65404;-38
2021/09/29 01:48:31;;;;;;;17.25;14.38;;;;;;;31.65;68.45;100852.34;5036263;28;70300;-38
2021/09/29 01:51:03;;;;;;;19.90;15.52;;;;;;;31.69;68.87;100854.38;5040861;28;66221;-38
2021/09/29 01:53:56;;;;;;;23.77;15.30;;;;;;;31.76;68.57;100848.88;5051719;28;69356;-39
2021/09/29 01:56:28;;;;;;;16.77;14.38;;;;;;;31.77;68.02;100853.25;5027219;28;66682;-38
2021/09/29 01:59:10;;;;;;;20.42;14.77;;;;;;;31.78;68.30;100850.31;5028607;28;70088;-38
2021/09/29 02:01:54;;;;;;;18.65;15.20;;;;;;;31.75;68.27;100844.53;5037771;27;66242;-38
2021/09/29 02:04:35;;;;;;;16.00;14.18;;;;;;;31.77;68.24;100845.94;5035360;28;70186;-38
2021/09/29 02:07:14;;;;;;;16.52;14.73;;;;;;;31.81;68.05;100838.19;5037592;28;66327;-38
2021/09/29 02:09:54;;;;;;;14.15;12.82;;;;;;;31.81;68.02;100843.59;5021633;28;70405;-38
2021/09/29 02:12:38;;;;;;;14.88;13.35;;;;;;;31.83;67.82;100841.50;5051660;27;65878;-38
2021/09/29 02:15:17;;;;;;;13.70;12.38;;;;;;;31.87;67.18;100837.25;5044185;27;69257;-38
2021/09/29 02:17:49;;;;;;;15.35;13.18;;;;;;;31.82;66.26;100826.28;5024172;28;66061;-38
2021/09/29 02:20:30;;;;;;;11.77;10.77;;;;;;;31.81;66.40;100828.16;5035144;28;70098;-38
2021/09/29 02:23:05;;;;;;;13.55;12.18;;;;;;;31.79;65.03;100824.03;5038189;28;66517;-38
2021/09/29 02:25:40;;;;;;;13.75;12.55;;;;;;;31.77;65.01;100821.53;5024507;28;70402;-38
2021/09/29 02:28:26;;;;;;;13.73;12.52;;;;;;;31.81;65.60;100819.19;5027413;28;66301;-38
2021/09/29 02:30:59;;;;;;;13.57;12.25;;;;;;;31.82;65.43;100801.88;5029327;28;70183;-38
2021/09/29 02:33:50;;;;;;;12.93;11.48;;;;;;;31.85;65.98;100809.56;5026985;28;64932;-38
2021/09/29 02:36:31;;;;;;;12.73;11.60;;;;;;;31.89;64.21;100813.47;5029822;28;69801;-38
2021/09/29 02:39:08;;;;;;;11.65;10.68;;;;;;;31.95;64.37;100820.69;5035809;28;65680;-39
2021/09/29 02:41:42;;;;;;;11.65;10.75;;;;;;;31.98;64.94;100812.13;5038565;28;70197;-39
2021/09/29 02:44:48;;;;;;;12.23;11.23;;;;;;;32.03;63.90;100814.97;5036385;28;66109;-39
2021/09/29 02:47:33;;;;;;;12.70;11.70;;;;;;;32.07;62.83;100814.50;5041109;27;69087;-38
2021/09/29 02:50:13;;;;;;;15.00;11.88;;;;;;;32.04;63.65;100813.91;5046772;28;66311;-39
2021/09/29 02:53:08;;;;;;;16.88;12.07;;;;;;;32.01;63.53;100814.38;5038865;28;69331;-38
2021/09/29 02:55:43;;;;;;;12.90;11.82;;;;;;;32.06;63.00;100805.53;5047572;28;66840;-38
2021/09/29 02:58:29;;;;;;;17.02;13.48;;;;;;;32.02;63.44;100802.47;5035751;28;70545;-39
2021/09/29 03:01:16;;;;;;;13.82;12.63;;;;;;;32.09;63.58;100804.25;5034032;28;65411;-39
2021/09/29 03:03:53;;;;;;;14.85;12.50;;;;;;;32.11;63.93;100810.28;5022113;28;70587;-39
2021/09/29 03:06:33;;;;;;;16.65;13.52;;;;;;;32.15;64.07;100801.47;5038535;28;66390;-40
2021/09/29 03:09:10;;;;;;;14.15;12.85;;;;;;;31.90;64.31;100769.00;5026338;28;69814;-39
2021/09/29 03:11:44;;;;;;;15.07;13.70;;;;;;;32.10;64.67;100793.19;5016201;28;66766;-40
2021/09/29 03:14:26;;;;;;;15.90;13.70;;;;;;;32.24;64.98;100799.25;5036728;28;70457;-38
2021/09/29 03:17:08;;;;;;;38.78;20.85;;;;;;;32.27;65.57;100798.78;5047449;28;66345;-39
2021/09/29 03:19:41;;;;;;;47.72;24.15;;;;;;;32.30;65.54;100798.31;5032681;28;70327;-38
2021/09/29 03:22:27;;;;;;;59.22;26.92;;;;;;;32.35;66.40;100790.28;5042434;28;65274;-37
2021/09/29 03:25:02;;;;;;;63.83;28.27;;;;;;;32.37;66.34;100790.88;5014888;28;69960;-39
2021/09/29 03:27:34;;;;;;;42.75;23.27;;;;;;;32.36;65.68;100786.50;5034079;28;66226;-38
2021/09/29 03:30:06;;;;;;;;;;;;;;;32.13;66.72;100792.72;5047780;28;70492;-39
2021/09/29 03:32:39;;;;;;;39.95;22.67;;;;;;;32.35;66.79;100784.88;5030775;28;66989;-39
2021/09/29 03:35:16;;;;;;;30.90;19.70;;;;;;;32.39;66.53;100779.78;5038637;28;69598;-38
2021/09/29 03:37:49;;;;;;;35.47;19.17;;;;;;;32.43;66.17;100780.97;5020345;28;66267;-38
2021/09/29 03:40:21;;;;;;;33.78;18.60;;;;;;;32.44;66.83;100777.22;5042339;28;70177;-39
2021/09/29 03:42:53;;;;;;;27.83;18.92;;;;;;;32.42;65.99;100774.72;5020340;28;64871;-38
2021/09/29 03:45:25;;;;;;;26.92;16.90;;;;;;;32.41;66.02;100762.22;5045955;28;70003;-39
2021/09/29 03:47:57;;;;;;;18.52;16.60;;;;;;;32.43;64.90;100760.09;5051613;28;66156;-40
2021/09/29 03:50:31;;;;;;;26.27;18.00;;;;;;;32.46;65.80;100754.22;5033118;28;69379;-40
2021/09/29 03:53:06;;;;;;;22.98;16.73;;;;;;;32.47;64.93;100750.44;5046102;28;66426;-39
2021/09/29 03:55:37;;;;;;;20.25;16.15;;;;;;;32.47;64.72;100750.44;5033028;28;70034;-38
2021/09/29 03:58:08;;;;;;;20.43;15.80;;;;;;;32.47;64.38;100746.91;5051707;28;65558;-39
2021/09/29 04:00:39;;;;;;;16.80;15.32;;;;;;;32.49;63.26;100753.75;5053085;28;69506;-39
2021/09/29 04:03:12;;;;;;;17.05;15.52;;;;;;;32.45;63.74;100740.84;5052838;28;66217;-38
2021/09/29 04:05:43;;;;;;;17.17;15.38;;;;;;;32.43;64.07;100746.53;5047430;27;69853;-38
2021/09/29 04:08:16;;;;;;;15.90;14.23;;;;;;;32.40;64.16;100733.41;5040849;28;65473;-38
2021/09/29 04:10:46;;;;;;;16.83;15.32;;;;;;;32.52;64.60;100741.59;5043027;28;69946;-38
2021/09/29 04:13:18;;;;;;;16.52;14.75;;;;;;;32.52;65.01;100744.31;5040844;28;66108;-38
2021/09/29 04:15:50;;;;;;;16.67;14.95;;;;;;;32.55;65.32;100735.69;4984471;28;69714;-37
2021/09/29 04:18:21;;;;;;;18.33;15.23;;;;;;;32.49;65.16;100721.19;5013867;28;66247;-38
2021/09/29 04:20:52;;;;;;;15.68;14.10;;;;;;;32.52;65.40;100721.78;5037748;28;70191;-36
2021/09/29 04:23:25;;;;;;;16.00;14.45;;;;;;;32.57;65.29;100721.88;5033232;28;66583;-37
2021/09/29 04:25:58;;;;;;;15.85;13.95;;;;;;;32.56;65.29;100717.50;5043480;28;71652;-38
2021/09/29 04:28:33;;;;;;;15.13;13.63;;;;;;;32.58;65.54;100712.69;5028446;28;65353;-38
2021/09/29 04:31:05;;;;;;;16.55;14.23;;;;;;;32.62;65.55;100708.41;5040601;28;69841;-37
2021/09/29 04:33:38;;;;;;;15.90;14.40;;;;;;;32.64;65.51;100698.16;5038319;28;65902;-38
2021/09/29 04:36:12;;;;;;;15.63;14.15;;;;;;;32.63;65.77;100700.03;5046724;28;69966;-37
2021/09/29 04:38:43;;;;;;;14.25;12.93;;;;;;;32.64;65.93;100698.16;5046209;28;66195;-36
2021/09/29 04:41:14;;;;;;;14.73;13.23;;;;;;;32.63;66.11;100693.78;5051036;28;69672;-38
2021/09/29 04:43:46;;;;;;;14.60;13.30;;;;;;;32.67;65.84;100684.09;5042941;28;64914;-37
2021/09/29 04:46:17;;;;;;;13.93;12.73;;;;;;;32.67;66.06;100675.94;5046132;28;70103;-37
2021/09/29 04:48:48;;;;;;;14.35;13.05;;;;;;;32.68;66.04;100677.59;5043596;28;66748;-37
2021/09/29 04:51:20;;;;;;;13.38;12.40;;;;;;;32.69;66.16;100676.53;5049503;28;70180;-37
2021/09/29 04:53:50;;;;;;;13.85;12.65;;;;;;;32.71;65.97;100674.44;5056905;28;66134;-37
2021/09/29 04:56:21;;;;;;;16.27;12.20;;;;;;;32.70;65.92;100667.31;5050343;28;71209;-38
2021/09/29 04:58:53;;;;;;;12.20;11.05;;;;;;;32.73;66.00;100672.28;5045167;28;65599;-38
2021/09/29 05:01:28;;;;;;;12.20;11.38;;;;;;;32.71;65.85;100661.66;5041284;28;70545;-38
2021/09/29 05:03:59;;;;;;;13.02;12.18;;;;;;;32.75;65.85;100658.47;5041147;28;66750;-38
2021/09/29 05:06:31;;;;;;;12.45;11.30;;;;;;;32.72;66.22;100648.91;5045602;28;70274;-38
2021/09/29 05:09:04;;;;;;;13.38;12.35;;;;;;;32.70;66.36;100635.56;5042663;28;65380;-38
2021/09/29 05:12:07;;;;;;;15.95;11.32;;;;;;;32.71;66.60;100641.84;5048543;28;69533;-38
2021/09/29 05:14:38;;;;;;;17.52;11.82;;;;;;;32.77;66.54;100638.16;5046203;28;66233;-38
2021/09/29 05:17:09;;;;;;;13.15;12.15;;;;;;;32.83;66.30;100652.66;5045693;28;70161;-38
2021/09/29 05:19:39;;;;;;;11.45;10.45;;;;;;;32.82;66.49;100632.84;5045166;28;65751;-38
2021/09/29 05:22:10;;;;;;;11.90;11.10;;;;;;;32.86;66.43;100634.00;5045387;28;69886;-38
2021/09/29 05:24:41;;;;;;;11.90;11.10;;;;;;;32.88;66.93;100631.88;5047254;28;65322;-38
2021/09/29 05:27:12;;;;;;;11.87;10.87;;;;;;;32.87;66.58;100635.63;5040356;28;70803;-39
2021/09/29 05:29:50;;;;;;;12.27;11.30;;;;;;;32.83;66.21;100626.31;5050332;28;66404;-37
2021/09/29 05:32:21;;;;;;;12.55;11.65;;;;;;;32.90;66.62;100629.75;5043178;28;70289;-37
2021/09/29 05:34:52;;;;;;;12.17;11.20;;;;;;;32.85;66.57;100621.47;5051431;28;65669;-37
2021/09/29 05:37:24;;;;;;;10.95;9.90;;;;;;;32.70;67.21;100602.13;5047766;28;70184;-37
2021/09/29 05:39:55;;;;;;;10.52;9.68;;;;;;;32.79;67.07;100611.59;5047171;28;66390;-37
2021/09/29 05:42:26;;;;;;;12.03;10.40;;;;;;;32.80;67.27;100624.09;5044029;28;69954;-37
2021/09/29 05:44:58;;;;;;;11.57;10.55;;;;;;;32.83;67.41;100617.34;5049798;28;66345;-38
2021/09/29 05:47:29;;;;;;;12.35;11.07;;;;;;;32.78;67.79;100607.19;5039083;28;70423;-38
2021/09/29 05:50:00;;;;;;;12.25;11.27;;;;;;;32.78;67.77;100604.47;5049774;28;66160;-38
2021/09/29 05:52:33;;;;;;;11.23;10.43;;;;;;;32.81;67.78;100611.34;5032782;28;69030;-38
2021/09/29 05:55:05;;;;;;;12.13;11.17;;;;;;;32.83;67.70;100607.31;5048562;28;67326;-38
2021/09/29 05:57:37;;;;;;;12.23;10.95;;;;;;;32.83;68.05;100599.16;5032095;28;69141;-35
2021/09/29 06:00:09;;;;;;;10.98;10.18;;;;;;;32.77;68.04;100591.16;5042273;28;66045;-38
2021/09/29 06:02:41;;;;;;;11.90;10.93;;;;;;;32.82;68.04;100594.81;5044960;28;70175;-38
2021/09/29 06:05:12;;;;;;;12.55;11.50;;;;;;;32.83;68.08;100595.63;5046043;28;65344;-38
2021/09/29 06:07:45;;;;;;;13.88;11.35;;;;;;;32.83;68.31;100592.91;5057311;27;70026;-38
2021/09/29 06:10:16;;;;;;;13.23;12.18;;;;;;;32.84;68.22;100592.66;5032953;28;66484;-38
2021/09/29 06:12:48;;;;;;;11.98;11.07;;;;;;;32.77;68.35;100580.28;5041094;28;69792;-39
2021/09/29 06:15:29;;;;;;;11.93;11.13;;;;;;;32.81;68.15;100587.69;5043135;28;66623;-38
2021/09/29 06:18:04;;;;;;;12.50;11.40;;;;;;;32.79;68.07;100589.84;5045938;28;70117;-38
2021/09/29 06:20:36;;;;;;;12.02;11.13;;;;;;;32.81;68.18;100598.56;5044003;28;66388;-39
2021/09/29 06:23:07;;;;;;;12.65;11.45;;;;;;;32.82;67.94;100583.94;5029112;28;69111;-39
2021/09/29 06:25:40;;;;;;;11.65;10.70;;;;;;;32.71;68.03;100552.22;5039352;28;66345;-38
2021/09/29 06:28:13;;;;;;;11.88;11.00;;;;;;;32.80;67.81;100542.59;5037456;28;70097;-38
2021/09/29 06:30:46;;;;;;;11.18;10.48;;;;;;;32.78;67.95;100530.31;5031182;28;66529;-38
2021/09/29 06:33:19;;;;;;;10.57;9.90;;;;;;;32.78;67.68;100519.47;5036891;28;69034;-38
2021/09/29 06:35:53;;;;;;;11.63;10.57;;;;;;;32.79;68.07;100524.66;5013182;28;65299;-41
2021/09/29 06:38:25;;;;;;;10.50;9.80;;;;;;;32.80;67.68;100525.47;5053990;28;69080;-39
2021/09/29 06:40:59;;;;;;;10.23;9.48;;;;;;;32.80;67.76;100512.72;5033322;28;66122;-38
2021/09/29 06:43:31;;;;;;;9.77;9.10;;;;;;;32.81;67.67;100499.97;5035529;28;70491;-38
2021/09/29 06:46:03;;;;;;;9.57;8.95;;;;;;;32.77;67.51;100488.75;5049374;27;66333;-38
2021/09/29 06:48:35;;;;;;;8.55;8.15;;;;;;;32.78;67.67;100484.97;5017126;28;69153;-38
2021/09/29 06:51:07;;;;;;;8.45;8.05;;;;;;;32.70;67.38;100463.63;5044172;27;66074;-39
2021/09/29 06:53:42;;;;;;;8.60;7.97;;;;;;;32.82;67.47;100491.59;5038706;28;69339;-38
2021/09/29 06:56:13;;;;;;;8.20;7.70;;;;;;;32.85;67.48;100488.38;5042452;28;66516;-38
2021/09/29 06:58:46;;;;;;;8.75;8.05;;;;;;;32.85;67.74;100485.66;5050062;28;69413;-38
2021/09/29 07:01:19;;;;;;;7.43;7.03;;;;;;;32.89;67.24;100481.38;5043707;28;66373;-38
2021/09/29 07:03:51;;;;;;;7.82;7.22;;;;;;;32.90;67.10;100487.63;5049901;28;70141;-39
2021/09/29 07:06:23;;;;;;;7.40;6.82;;;;;;;32.88;66.72;100497.94;5030795;28;65468;-39
2021/09/29 07:08:54;;;;;;;6.95;6.60;;;;;;;32.86;65.95;100503.59;5043909;28;70294;-39
2021/09/29 07:11:25;;;;;;;6.50;6.18;;;;;;;32.85;65.37;100496.53;5041530;28;66003;-39
2021/09/29 07:14:02;;;;;;;6.35;5.97;;;;;;;32.82;64.86;100491.59;5049779;28;69868;-39
2021/09/29 07:16:39;;;;;;;5.78;5.47;;;;;;;32.84;64.20;100483.16;5044518;28;65403;-39
2021/09/29 07:19:11;;;;;;;5.60;5.30;;;;;;;32.85;63.63;100479.41;5038858;28;69544;-39
2021/09/29 07:21:42;;;;;;;;;;;;;;;32.59;64.08;100459.06;5024429;28;66046;-39
2021/09/29 07:24:24;;;;;;;14.60;5.70;;;;;;;32.78;63.58;100444.22;5034172;28;70056;-40
2021/09/29 07:27:01;;;;;;;6.07;5.57;;;;;;;32.93;63.69;100449.94;5030633;28;65935;-38
2021/09/29 07:29:35;;;;;;;6.30;5.95;;;;;;;32.98;63.20;100440.22;5039416;28;70171;-39
2021/09/29 07:32:10;;;;;;;5.55;5.20;;;;;;;32.99;63.31;100425.56;5019022;28;66142;-38
2021/09/29 07:34:42;;;;;;;5.93;5.47;;;;;;;33.01;63.30;100428.91;5049526;28;69386;-38
2021/09/29 07:37:14;;;;;;;5.57;5.28;;;;;;;33.00;63.31;100416.38;5044644;27;66265;-39
2021/09/29 07:39:47;;;;;;;5.25;4.95;;;;;;;33.08;62.84;100414.09;5020468;28;70070;-39
2021/09/29 07:42:19;;;;;;;6.15;5.75;;;;;;;33.11;62.18;100407.34;5029211;28;65996;-39
2021/09/29 07:44:54;;;;;;;5.70;5.30;;;;;;;33.15;62.07;100408.47;5059164;28;69802;-39
2021/09/29 07:47:26;;;;;;;4.85;4.65;;;;;;;33.15;62.06;100397.59;5042623;28;65184;-39
2021/09/29 07:49:58;;;;;;;6.18;5.78;;;;;;;33.23;61.91;100405.34;5042530;28;70169;-38
2021/09/29 07:52:36;;;;;;;5.68;5.38;;;;;;;33.23;61.98;100405.34;5045312;28;66397;-38
2021/09/29 07:55:12;;;;;;;6.10;5.70;;;;;;;33.27;61.57;100401.06;5031291;28;70337;-39
2021/09/29 07:57:49;;;;;;;5.95;5.65;;;;;;;33.29;61.60;100390.78;5049261;28;67502;-39
2021/09/29 08:00:20;;;;;;;6.00;5.60;;;;;;;33.31;61.95;100380.47;5058135;28;69396;-39
2021/09/29 08:02:55;;;;;;;5.95;5.65;;;;;;;33.37;61.49;100379.47;5055040;28;65102;-38
2021/09/29 08:05:27;;;;;;;6.80;6.40;;;;;;;33.38;61.42;100378.41;5052074;28;69672;-38
2021/09/29 08:08:00;;;;;;;6.78;6.22;;;;;;;33.43;61.81;100376.81;5045095;28;66112;-40
2021/09/29 08:10:34;;;;;;;6.35;5.90;;;;;;;33.17;61.31;100335.69;5046055;28;70013;-39
2021/09/29 08:13:08;;;;;;;7.82;7.18;;;;;;;33.49;60.68;100386.69;5050548;28;66423;-40
2021/09/29 08:15:42;;;;;;;7.80;7.07;;;;;;;33.51;61.02;100370.97;5046366;28;70149;-39
2021/09/29 08:18:14;;;;;;;19.90;6.43;;;;;;;33.55;61.55;100374.88;5042361;28;66466;-39
2021/09/29 08:20:47;;;;;;;7.03;6.53;;;;;;;33.61;60.89;100357.53;5039335;27;70575;-40
2021/09/29 08:23:33;;;;;;;8.15;6.10;;;;;;;33.62;60.84;100353.75;5034206;28;65667;-38
2021/09/29 08:32:15;;;;;;;7.43;6.72;;;;;;;33.67;59.33;100377.47;5042994;28;70239;-39
2021/09/29 08:35:08;;;;;;;11.15;6.85;;;;;;;33.67;59.24;100389.16;5039581;28;65538;-39
2021/09/29 08:37:50;;;;;;;6.85;6.35;;;;;;;33.68;59.43;100390.00;5044241;28;70315;-39
2021/09/29 08:45:52;;;;;;;7.65;6.97;;;;;;;33.69;60.17;100375.34;5037094;28;65743;-39
2021/09/29 08:48:33;;;;;;;6.88;6.45;;;;;;;33.75;60.52;100391.47;5043534;28;70061;-39
2021/09/29 08:57:14;;;;;;;7.63;7.15;;;;;;;33.78;60.50;100380.06;5039574;28;66375;-37
2021/09/29 09:17:27;;;;;;;8.38;6.78;;;;;;;33.87;61.29;100432.16;5038588;28;70500;-38
2021/09/29 09:20:16;;;;;;;8.50;7.70;;;;;;;33.89;61.12;100440.06;5052947;28;65431;-38
2021/09/29 09:22:57;;;;;;;14.68;7.50;;;;;;;33.54;61.77;100367.75;5052183;28;69803;-37
2021/09/29 09:25:41;;;;;;;14.55;7.03;;;;;;;33.99;62.01;100435.59;5048618;28;67090;-37
2021/09/29 09:28:32;;;;;;;8.13;7.32;;;;;;;33.97;61.77;100426.84;5051852;28;70782;-37
2021/09/29 09:31:15;;;;;;;7.25;6.65;;;;;;;34.05;61.64;100431.06;5050893;28;66462;-36
2021/09/29 09:34:00;;;;;;;7.68;7.03;;;;;;;33.97;61.91;100436.91;5049646;28;70214;-37
2021/09/29 09:36:43;;;;;;;11.45;6.97;;;;;;;34.09;61.64;100456.69;5047443;28;66320;-37
2021/09/29 09:39:22;;;;;;;8.50;7.57;;;;;;;34.03;61.27;100447.59;5042982;28;70012;-38
2021/09/29 09:41:58;;;;;;;8.43;7.65;;;;;;;34.11;61.57;100460.00;5055933;28;66550;-37
2021/09/29 09:44:34;;;;;;;9.63;7.82;;;;;;;34.10;61.35;100458.34;5049463;28;70028;-37
2021/09/29 09:47:09;;;;;;;13.80;8.25;;;;;;;33.95;61.49;100431.72;5052427;28;65636;-38
2021/09/29 09:49:55;;;;;;;8.85;8.15;;;;;;;33.90;61.74;100447.16;5052651;28;70109;-37
2021/09/29 09:52:46;;;;;;;9.63;8.77;;;;;;;34.06;61.77;100467.25;5049528;28;66638;-37
2021/09/29 09:55:25;;;;;;;9.77;8.70;;;;;;;33.81;61.75;100431.25;5050838;28;69971;-38
2021/09/29 09:57:57;;;;;;;12.40;8.73;;;;;;;34.12;61.57;100480.69;5047056;28;66918;-38
2021/09/29 10:00:29;;;;;;;9.23;8.35;;;;;;;34.07;61.50;100469.72;5046375;28;69450;-38
2021/09/29 10:03:01;;;;;;;9.93;8.63;;;;;;;34.12;61.86;100483.41;5037617;28;65626;-38
2021/09/29 10:05:32;;;;;;;9.38;8.38;;;;;;;34.11;61.97;100492.66;5048707;28;70230;-37
2021/09/29 10:08:07;;;;;;;10.55;9.30;;;;;;;34.06;61.72;100503.47;5044027;28;66601;-37
2021/09/29 10:23:08;;;;;;;7.90;7.18;;;;;;;34.01;60.21;100503.34;5053768;28;69063;-38
2021/09/29 10:26:21;;;;;;;7.95;7.45;;;;;;;33.89;59.76;100499.94;5048458;28;66672;-38
2021/09/29 10:29:12;;;;;;;7.50;7.00;;;;;;;33.84;59.95;100492.50;5049954;28;69557;-37
2021/09/29 10:32:00;;;;;;;8.10;7.37;;;;;;;33.94;60.51;100497.28;5046518;28;65538;-38
2021/09/29 10:34:41;;;;;;;7.95;7.22;;;;;;;33.86;60.24;100478.66;5047633;28;69133;-38
2021/09/29 10:37:25;;;;;;;7.65;7.10;;;;;;;33.89;60.64;100486.31;5046055;28;65095;-38
2021/09/29 10:40:21;;;;;;;8.50;7.90;;;;;;;33.88;60.62;100493.66;5048315;28;69845;-37
2021/09/29 10:43:04;;;;;;;8.43;7.55;;;;;;;33.87;60.64;100496.63;5045956;28;66529;-38
2021/09/29 10:49:06;;;;;;;7.70;7.10;;;;;;;33.79;61.19;100512.31;5037951;28;65310;-37
2021/09/29 10:52:27;;;;;;;9.25;7.47;;;;;;;33.75;61.62;100524.75;5036919;28;69114;-38
2021/09/29 11:04:24;;;;;;;8.60;7.57;;;;;;;33.62;62.05;100533.25;5048118;28;70166;-36
2021/09/29 11:07:07;;;;;;;8.38;7.78;;;;;;;33.72;62.13;100552.44;5048551;28;65509;-38
2021/09/29 11:29:45;;;;;;;9.48;8.77;;;;;;;33.26;62.73;100538.03;5041592;27;65481;-37
2021/09/29 11:35:19;;;;;;;11.23;9.55;;;;;;;33.49;62.76;100588.75;5042009;28;65986;-37
2021/09/29 11:38:22;;;;;;;10.77;9.70;;;;;;;33.50;62.75;100595.03;5044640;28;70793;-36
2021/09/29 11:49:56;;;;;;;10.02;9.13;;;;;;;33.44;62.73;100620.47;5044824;28;70860;-37
2021/09/29 12:10:09;;;;;;;9.70;8.55;;;;;;;33.24;61.64;100624.47;5045717;28;65927;-37
2021/09/29 12:12:48;;;;;;;8.93;8.43;;;;;;;33.20;62.20;100623.28;5039851;28;69866;-36
2021/09/29 12:15:20;;;;;;;9.60;8.80;;;;;;;33.24;61.73;100629.91;5041108;28;66628;-38
2021/09/29 12:17:51;;;;;;;10.55;9.75;;;;;;;33.19;61.87;100627.09;5039848;28;70013;-39
2021/09/29 12:20:27;;;;;;;9.73;8.98;;;;;;;33.18;62.36;100630.84;5047154;28;66599;-38
2021/09/29 12:23:03;;;;;;;12.52;8.57;;;;;;;33.20;62.02;100626.00;5049830;28;70492;-39
2021/09/29 12:25:40;;;;;;;9.32;8.65;;;;;;;33.18;61.93;100636.28;5046402;27;66396;-38
2021/09/29 12:34:10;;;;;;;11.63;9.32;;;;;;;32.78;63.15;100609.91;5041121;28;69092;-38
2021/09/29 12:36:41;;;;;;;8.75;7.55;;;;;;;32.64;63.90;100619.41;5049689;28;66432;-38
2021/09/29 12:39:19;;;;;;;8.02;7.50;;;;;;;32.40;64.42;100613.97;5050718;27;70208;-39
2021/09/29 12:41:54;;;;;;;8.65;7.55;;;;;;;32.13;64.60;100596.50;5047426;28;65666;-38
2021/09/29 12:44:25;;;;;;;8.32;7.53;;;;;;;32.38;64.08;100642.41;5041341;28;70301;-38
2021/09/29 12:47:22;;;;;;;10.43;6.88;;;;;;;32.61;63.92;100677.72;5045194;28;65648;-38
2021/09/29 12:49:55;;;;;;;7.20;6.60;;;;;;;32.40;63.73;100643.84;5051468;28;69183;-37
2021/09/29 12:52:38;;;;;;;7.57;7.00;;;;;;;32.71;63.13;100680.69;5037329;28;65143;-38
2021/09/29 12:55:18;;;;;;;6.75;6.15;;;;;;;32.71;63.20;100679.84;5049669;28;69841;-38
2021/09/29 12:57:52;;;;;;;6.15;5.75;;;;;;;32.69;63.21;100677.38;5033659;28;66450;-37
2021/09/29 13:00:23;;;;;;;7.35;6.43;;;;;;;32.74;62.84;100684.00;5043707;28;70476;-38
2021/09/29 13:02:54;;;;;;;;;;;;;;;32.43;63.79;100689.50;5048679;28;65031;-38
2021/09/29 13:05:27;;;;;;;6.15;5.65;;;;;;;32.71;63.10;100688.81;5043893;28;69666;-38
2021/09/29 13:08:03;;;;;;;6.22;5.60;;;;;;;32.68;62.81;100677.59;5028790;28;65486;-38
2021/09/29 13:10:39;;;;;;;6.07;5.68;;;;;;;32.74;63.17;100690.25;5029588;28;70521;-37
2021/09/29 13:13:12;;;;;;;5.45;5.05;;;;;;;32.74;62.71;100692.97;5048564;28;65899;-37
2021/09/29 13:15:48;;;;;;;6.35;4.47;;;;;;;32.70;62.54;100689.88;5046287;28;70181;-37
2021/09/29 13:18:33;;;;;;;5.10;4.80;;;;;;;32.69;62.78;100685.50;5056828;28;65211;-37
2021/09/29 13:21:23;;;;;;;8.55;4.47;;;;;;;32.72;62.49;100676.06;5036621;28;70486;-38
2021/09/29 13:24:02;;;;;;;4.88;4.43;;;;;;;32.68;62.29;100683.88;5019079;28;65526;-37
2021/09/29 13:27:02;;;;;;;4.15;3.85;;;;;;;32.70;62.46;100695.31;5045379;28;69540;-36
2021/09/29 13:37:52;;;;;;;4.25;3.95;;;;;;;32.66;62.48;100698.75;5045877;28;70083;-37
2021/09/29 13:40:26;;;;;;;4.70;3.50;;;;;;;32.58;62.44;100689.06;5021174;28;66090;-37
2021/09/29 13:42:58;;;;;;;4.28;3.88;;;;;;;32.41;62.27;100664.47;5039841;28;70042;-37
2021/09/29 13:45:30;;;;;;;4.00;3.65;;;;;;;32.64;62.35;100700.88;5047324;28;66418;-37
2021/09/29 13:48:05;;;;;;;7.95;3.30;;;;;;;32.63;62.15;100708.19;5050317;28;69800;-38
2021/09/29 13:50:42;;;;;;;3.85;3.50;;;;;;;32.61;62.18;100704.06;5044106;28;65400;-37
2021/09/29 13:53:14;;;;;;;4.47;3.20;;;;;;;32.61;61.96;100712.22;5047135;28;69069;-46
2021/09/29 13:55:49;;;;;;;7.18;3.50;;;;;;;32.58;62.15;100718.13;5042739;28;65568;-37
2021/09/29 14:34:46;;;;;;;6.63;3.20;;;;;;;32.23;63.41;100803.84;5017440;28;66588;-36
2021/09/29 14:37:21;;;;;;;3.80;3.50;;;;;;;32.17;63.82;100814.78;5048107;28;69215;-36
2021/09/29 14:39:56;;;;;;;4.68;3.17;;;;;;;32.09;64.01;100806.97;5033182;28;66219;-36
2021/09/29 14:42:28;;;;;;;4.00;3.80;;;;;;;31.95;64.81;100790.88;5041678;28;70057;-37